sensor_id;sensor_type;location;lat;lon;timestamp;P1;durP1;ratioP1;P2;durP2;ratioP2
1777;SDS011;71547;50.146;8.174;2023-11-21T00:02:26;1.20;;;1.10;;
1777;SDS011;71547;50.146;8.174;2023-11-21T00:04:56;1.00;;;0.90;;
1777;SDS011;71547;50.146;8.174;2023-11-21T00:07:24;1.10;;;1.00;;
1777;SDS011;71547;50.146;8.174;2023-11-21T00:09:51;1.10;;;1.00;;
1777;SDS011;71547;50.146;8.174;2023-11-21T00:12:19;1.40;;;1.30;;
1777;SDS011;71547;50.146;8.174;2023-11-21T00:14:46;1.20;;;1.10;;
1777;SDS011;71547;50.146;8.174;2023-11-21T00:17:14;2.37;;;1.17;;
1777;SDS011;71547;50.146;8.174;2023-11-21T00:19:41;1.20;;;1.10;;
1777;SDS011;71547;50.146;8.174;2023-11-21T00:22:09;1.20;;;1.10;;
1777;SDS011;71547;50.146;8.174;2023-11-21T00:24:37;1.37;;;1.27;;
1777;SDS011;71547;50.146;8.174;2023-11-21T00:27:04;1.27;;;1.17;;
1777;SDS011;71547;50.146;8.174;2023-11-21T00:29:32;1.10;;;0.93;;
1777;SDS011;71547;50.146;8.174;2023-11-21T00:31:59;0.87;;;0.83;;
1777;SDS011;71547;50.146;8.174;2023-11-21T00:34:26;1.20;;;1.10;;
1777;SDS011;71547;50.146;8.174;2023-11-21T00:36:53;1.47;;;1.10;;
1777;SDS011;71547;50.146;8.174;2023-11-21T00:39:21;1.20;;;1.10;;
1777;SDS011;71547;50.146;8.174;2023-11-21T00:41:49;1.20;;;1.10;;
1777;SDS011;71547;50.146;8.174;2023-11-21T00:44:17;1.30;;;1.20;;
1777;SDS011;71547;50.146;8.174;2023-11-21T00:46:44;1.00;;;0.90;;
1777;SDS011;71547;50.146;8.174;2023-11-21T00:49:11;1.30;;;1.20;;
1777;SDS011;71547;50.146;8.174;2023-11-21T00:51:39;1.40;;;1.30;;
1777;SDS011;71547;50.146;8.174;2023-11-21T00:54:07;1.20;;;1.10;;
1777;SDS011;71547;50.146;8.174;2023-11-21T00:56:34;2.63;;;1.30;;
1777;SDS011;71547;50.146;8.174;2023-11-21T00:59:02;1.17;;;1.07;;
1777;SDS011;71547;50.146;8.174;2023-11-21T01:01:31;1.20;;;1.10;;
1777;SDS011;71547;50.146;8.174;2023-11-21T01:03:58;2.10;;;1.33;;
1777;SDS011;71547;50.146;8.174;2023-11-21T01:06:26;2.40;;;1.13;;
1777;SDS011;71547;50.146;8.174;2023-11-21T01:08:53;1.13;;;1.03;;
1777;SDS011;71547;50.146;8.174;2023-11-21T01:11:20;1.40;;;1.30;;
1777;SDS011;71547;50.146;8.174;2023-11-21T01:13:47;1.53;;;1.43;;
1777;SDS011;71547;50.146;8.174;2023-11-21T01:16:15;1.60;;;1.50;;
1777;SDS011;71547;50.146;8.174;2023-11-21T01:18:42;1.60;;;1.50;;
1777;SDS011;71547;50.146;8.174;2023-11-21T01:21:10;1.50;;;1.40;;
1777;SDS011;71547;50.146;8.174;2023-11-21T01:23:37;1.73;;;1.63;;
1777;SDS011;71547;50.146;8.174;2023-11-21T01:26:04;2.27;;;1.40;;
1777;SDS011;71547;50.146;8.174;2023-11-21T01:28:31;1.83;;;1.73;;
1777;SDS011;71547;50.146;8.174;2023-11-21T01:30:58;1.57;;;1.47;;
1777;SDS011;71547;50.146;8.174;2023-11-21T01:33:27;2.57;;;1.63;;
1777;SDS011;71547;50.146;8.174;2023-11-21T01:35:54;1.60;;;1.50;;
1777;SDS011;71547;50.146;8.174;2023-11-21T01:38:21;1.70;;;1.60;;
1777;SDS011;71547;50.146;8.174;2023-11-21T01:40:49;1.90;;;1.80;;
1777;SDS011;71547;50.146;8.174;2023-11-21T01:43:16;2.07;;;1.97;;
1777;SDS011;71547;50.146;8.174;2023-11-21T01:45:43;1.93;;;1.83;;
1777;SDS011;71547;50.146;8.174;2023-11-21T01:48:12;3.97;;;2.30;;
1777;SDS011;71547;50.146;8.174;2023-11-21T01:50:44;1.97;;;1.87;;
1777;SDS011;71547;50.146;8.174;2023-11-21T01:53:11;1.90;;;1.80;;
1777;SDS011;71547;50.146;8.174;2023-11-21T01:55:40;2.27;;;1.47;;
1777;SDS011;71547;50.146;8.174;2023-11-21T01:58:09;1.20;;;1.10;;
1777;SDS011;71547;50.146;8.174;2023-11-21T02:00:37;1.20;;;1.10;;
1777;SDS011;71547;50.146;8.174;2023-11-21T02:03:05;1.40;;;1.30;;
1777;SDS011;71547;50.146;8.174;2023-11-21T02:05:33;1.10;;;1.00;;
1777;SDS011;71547;50.146;8.174;2023-11-21T02:08:02;1.10;;;1.00;;
1777;SDS011;71547;50.146;8.174;2023-11-21T02:10:30;1.00;;;0.90;;
1777;SDS011;71547;50.146;8.174;2023-11-21T02:12:58;1.20;;;1.00;;
1777;SDS011;71547;50.146;8.174;2023-11-21T02:15:26;0.80;;;0.80;;
1777;SDS011;71547;50.146;8.174;2023-11-21T02:17:55;1.00;;;0.90;;
1777;SDS011;71547;50.146;8.174;2023-11-21T02:20:25;1.50;;;0.90;;
1777;SDS011;71547;50.146;8.174;2023-11-21T02:22:54;0.93;;;0.83;;
1777;SDS011;71547;50.146;8.174;2023-11-21T02:25:27;0.97;;;0.87;;
1777;SDS011;71547;50.146;8.174;2023-11-21T02:27:56;1.20;;;1.10;;
1777;SDS011;71547;50.146;8.174;2023-11-21T02:30:24;2.47;;;1.60;;
1777;SDS011;71547;50.146;8.174;2023-11-21T02:32:52;1.70;;;1.60;;
1777;SDS011;71547;50.146;8.174;2023-11-21T02:35:24;1.63;;;1.53;;
1777;SDS011;71547;50.146;8.174;2023-11-21T02:37:56;2.70;;;1.53;;
1777;SDS011;71547;50.146;8.174;2023-11-21T02:40:23;1.60;;;1.50;;
1777;SDS011;71547;50.146;8.174;2023-11-21T02:42:52;1.60;;;1.50;;
1777;SDS011;71547;50.146;8.174;2023-11-21T02:45:19;1.60;;;1.50;;
1777;SDS011;71547;50.146;8.174;2023-11-21T02:47:48;2.30;;;1.37;;
1777;SDS011;71547;50.146;8.174;2023-11-21T02:50:16;1.20;;;1.10;;
1777;SDS011;71547;50.146;8.174;2023-11-21T02:52:45;1.50;;;1.40;;
1777;SDS011;71547;50.146;8.174;2023-11-21T02:55:14;1.30;;;1.20;;
1777;SDS011;71547;50.146;8.174;2023-11-21T02:57:42;1.43;;;1.33;;
1777;SDS011;71547;50.146;8.174;2023-11-21T03:00:09;1.27;;;1.17;;
1777;SDS011;71547;50.146;8.174;2023-11-21T03:02:39;1.60;;;1.50;;
1777;SDS011;71547;50.146;8.174;2023-11-21T03:05:07;1.80;;;1.70;;
1777;SDS011;71547;50.146;8.174;2023-11-21T03:07:36;1.90;;;1.80;;
1777;SDS011;71547;50.146;8.174;2023-11-21T03:10:04;1.67;;;1.57;;
1777;SDS011;71547;50.146;8.174;2023-11-21T03:12:37;1.90;;;1.80;;
1777;SDS011;71547;50.146;8.174;2023-11-21T03:15:05;1.97;;;1.77;;
1777;SDS011;71547;50.146;8.174;2023-11-21T03:17:33;2.73;;;1.50;;
1777;SDS011;71547;50.146;8.174;2023-11-21T03:20:04;1.70;;;1.60;;
1777;SDS011;71547;50.146;8.174;2023-11-21T03:22:32;1.70;;;1.60;;
1777;SDS011;71547;50.146;8.174;2023-11-21T03:25:00;3.27;;;1.70;;
1777;SDS011;71547;50.146;8.174;2023-11-21T03:27:27;1.90;;;1.80;;
1777;SDS011;71547;50.146;8.174;2023-11-21T03:29:56;1.93;;;1.83;;
1777;SDS011;71547;50.146;8.174;2023-11-21T03:32:23;1.97;;;1.87;;
1777;SDS011;71547;50.146;8.174;2023-11-21T03:34:53;2.40;;;2.20;;
1777;SDS011;71547;50.146;8.174;2023-11-21T03:37:22;3.00;;;2.70;;
1777;SDS011;71547;50.146;8.174;2023-11-21T03:39:51;4.50;;;2.00;;
1777;SDS011;71547;50.146;8.174;2023-11-21T03:42:18;2.60;;;2.40;;
1777;SDS011;71547;50.146;8.174;2023-11-21T03:44:45;3.30;;;3.10;;
1777;SDS011;71547;50.146;8.174;2023-11-21T03:47:14;2.97;;;2.60;;
1777;SDS011;71547;50.146;8.174;2023-11-21T03:49:41;2.70;;;2.40;;
1777;SDS011;71547;50.146;8.174;2023-11-21T03:52:08;3.23;;;3.03;;
1777;SDS011;71547;50.146;8.174;2023-11-21T03:54:36;3.23;;;2.97;;
1777;SDS011;71547;50.146;8.174;2023-11-21T03:57:04;3.80;;;3.47;;
1777;SDS011;71547;50.146;8.174;2023-11-21T03:59:32;5.47;;;4.20;;
1777;SDS011;71547;50.146;8.174;2023-11-21T04:02:00;5.00;;;4.50;;
1777;SDS011;71547;50.146;8.174;2023-11-21T04:04:46;4.53;;;4.13;;
1777;SDS011;71547;50.146;8.174;2023-11-21T04:07:14;6.50;;;4.60;;
1777;SDS011;71547;50.146;8.174;2023-11-21T04:09:41;6.77;;;4.80;;
1777;SDS011;71547;50.146;8.174;2023-11-21T04:12:09;4.77;;;4.37;;
1777;SDS011;71547;50.146;8.174;2023-11-21T04:14:36;5.47;;;4.97;;
1777;SDS011;71547;50.146;8.174;2023-11-21T04:20:08;5.03;;;4.53;;
1777;SDS011;71547;50.146;8.174;2023-11-21T04:22:37;4.50;;;4.10;;
1777;SDS011;71547;50.146;8.174;2023-11-21T04:25:24;4.13;;;3.73;;
1777;SDS011;71547;50.146;8.174;2023-11-21T04:27:52;3.53;;;3.23;;
1777;SDS011;71547;50.146;8.174;2023-11-21T04:30:19;4.03;;;3.73;;
1777;SDS011;71547;50.146;8.174;2023-11-21T04:32:47;5.00;;;3.73;;
1777;SDS011;71547;50.146;8.174;2023-11-21T04:35:15;4.70;;;4.13;;
1777;SDS011;71547;50.146;8.174;2023-11-21T04:37:42;6.27;;;4.60;;
1777;SDS011;71547;50.146;8.174;2023-11-21T04:40:10;4.20;;;3.80;;
1777;SDS011;71547;50.146;8.174;2023-11-21T04:42:38;5.77;;;5.27;;
1777;SDS011;71547;50.146;8.174;2023-11-21T04:45:05;6.33;;;5.70;;
1777;SDS011;71547;50.146;8.174;2023-11-21T04:47:35;7.20;;;5.47;;
1777;SDS011;71547;50.146;8.174;2023-11-21T04:50:04;6.37;;;5.77;;
1777;SDS011;71547;50.146;8.174;2023-11-21T04:52:33;6.70;;;4.93;;
1777;SDS011;71547;50.146;8.174;2023-11-21T04:55:01;5.50;;;4.67;;
1777;SDS011;71547;50.146;8.174;2023-11-21T04:57:29;5.33;;;4.90;;
1777;SDS011;71547;50.146;8.174;2023-11-21T04:59:56;4.40;;;4.07;;
1777;SDS011;71547;50.146;8.174;2023-11-21T05:02:23;7.07;;;5.17;;
1777;SDS011;71547;50.146;8.174;2023-11-21T05:05:01;5.00;;;4.53;;
1777;SDS011;71547;50.146;8.174;2023-11-21T05:07:28;4.90;;;3.40;;
1777;SDS011;71547;50.146;8.174;2023-11-21T05:09:59;3.87;;;3.57;;
1777;SDS011;71547;50.146;8.174;2023-11-21T05:12:30;3.60;;;3.30;;
1777;SDS011;71547;50.146;8.174;2023-11-21T05:15:04;3.53;;;3.20;;
1777;SDS011;71547;50.146;8.174;2023-11-21T05:17:36;3.13;;;2.93;;
1777;SDS011;71547;50.146;8.174;2023-11-21T05:20:05;3.20;;;2.90;;
1777;SDS011;71547;50.146;8.174;2023-11-21T05:22:36;2.70;;;2.50;;
1777;SDS011;71547;50.146;8.174;2023-11-21T05:25:06;2.90;;;2.70;;
1777;SDS011;71547;50.146;8.174;2023-11-21T05:27:35;2.60;;;2.40;;
1777;SDS011;71547;50.146;8.174;2023-11-21T05:30:03;3.50;;;3.20;;
1777;SDS011;71547;50.146;8.174;2023-11-21T05:32:31;2.73;;;2.53;;
1777;SDS011;71547;50.146;8.174;2023-11-21T05:34:59;3.40;;;3.10;;
1777;SDS011;71547;50.146;8.174;2023-11-21T05:37:27;4.40;;;3.73;;
1777;SDS011;71547;50.146;8.174;2023-11-21T05:40:13;3.40;;;3.10;;
1777;SDS011;71547;50.146;8.174;2023-11-21T05:42:41;3.90;;;3.50;;
1777;SDS011;71547;50.146;8.174;2023-11-21T05:45:08;3.60;;;3.30;;
1777;SDS011;71547;50.146;8.174;2023-11-21T05:47:37;3.20;;;2.80;;
1777;SDS011;71547;50.146;8.174;2023-11-21T05:50:07;3.33;;;3.03;;
1777;SDS011;71547;50.146;8.174;2023-11-21T05:52:41;3.70;;;3.40;;
1777;SDS011;71547;50.146;8.174;2023-11-21T05:55:10;3.77;;;3.47;;
1777;SDS011;71547;50.146;8.174;2023-11-21T05:57:39;3.00;;;2.80;;
1777;SDS011;71547;50.146;8.174;2023-11-21T06:00:08;3.23;;;2.93;;
1777;SDS011;71547;50.146;8.174;2023-11-21T06:02:39;2.97;;;2.77;;
1777;SDS011;71547;50.146;8.174;2023-11-21T06:05:06;2.70;;;2.50;;
1777;SDS011;71547;50.146;8.174;2023-11-21T06:07:35;3.50;;;3.20;;
1777;SDS011;71547;50.146;8.174;2023-11-21T06:10:03;3.60;;;3.40;;
1777;SDS011;71547;50.146;8.174;2023-11-21T06:12:35;3.73;;;3.43;;
1777;SDS011;71547;50.146;8.174;2023-11-21T06:15:04;2.87;;;2.67;;
1777;SDS011;71547;50.146;8.174;2023-11-21T06:17:34;4.87;;;4.43;;
1777;SDS011;71547;50.146;8.174;2023-11-21T06:20:03;4.30;;;4.00;;
1777;SDS011;71547;50.146;8.174;2023-11-21T06:22:36;5.53;;;4.40;;
1777;SDS011;71547;50.146;8.174;2023-11-21T06:25:03;5.30;;;4.80;;
1777;SDS011;71547;50.146;8.174;2023-11-21T06:27:32;8.97;;;4.63;;
1777;SDS011;71547;50.146;8.174;2023-11-21T06:30:00;4.80;;;4.40;;
1777;SDS011;71547;50.146;8.174;2023-11-21T06:32:29;5.10;;;4.30;;
1777;SDS011;71547;50.146;8.174;2023-11-21T06:34:58;5.73;;;3.67;;
1777;SDS011;71547;50.146;8.174;2023-11-21T06:37:28;4.30;;;3.90;;
1777;SDS011;71547;50.146;8.174;2023-11-21T06:39:56;5.40;;;3.67;;
1777;SDS011;71547;50.146;8.174;2023-11-21T06:42:24;3.97;;;3.63;;
1777;SDS011;71547;50.146;8.174;2023-11-21T06:44:52;3.37;;;3.07;;
1777;SDS011;71547;50.146;8.174;2023-11-21T06:47:23;4.27;;;3.90;;
1777;SDS011;71547;50.146;8.174;2023-11-21T06:49:58;3.43;;;3.20;;
1777;SDS011;71547;50.146;8.174;2023-11-21T06:52:26;4.43;;;3.50;;
1777;SDS011;71547;50.146;8.174;2023-11-21T06:54:54;3.77;;;3.47;;
1777;SDS011;71547;50.146;8.174;2023-11-21T06:57:22;3.80;;;3.50;;
1777;SDS011;71547;50.146;8.174;2023-11-21T06:59:49;4.17;;;3.83;;
1777;SDS011;71547;50.146;8.174;2023-11-21T07:02:16;3.63;;;3.33;;
1777;SDS011;71547;50.146;8.174;2023-11-21T07:04:45;5.17;;;3.90;;
1777;SDS011;71547;50.146;8.174;2023-11-21T07:07:14;3.37;;;3.07;;
1777;SDS011;71547;50.146;8.174;2023-11-21T07:09:41;3.73;;;3.40;;
1777;SDS011;71547;50.146;8.174;2023-11-21T07:12:08;3.87;;;3.57;;
1777;SDS011;71547;50.146;8.174;2023-11-21T07:14:35;4.90;;;3.97;;
1777;SDS011;71547;50.146;8.174;2023-11-21T07:17:03;3.60;;;3.40;;
1777;SDS011;71547;50.146;8.174;2023-11-21T07:19:30;3.30;;;3.10;;
1777;SDS011;71547;50.146;8.174;2023-11-21T07:21:57;8.73;;;3.90;;
1777;SDS011;71547;50.146;8.174;2023-11-21T07:24:25;4.30;;;4.00;;
1777;SDS011;71547;50.146;8.174;2023-11-21T07:26:53;4.30;;;3.90;;
1777;SDS011;71547;50.146;8.174;2023-11-21T07:29:23;4.70;;;4.30;;
1777;SDS011;71547;50.146;8.174;2023-11-21T07:31:52;4.37;;;3.97;;
1777;SDS011;71547;50.146;8.174;2023-11-21T07:34:19;4.57;;;4.17;;
1777;SDS011;71547;50.146;8.174;2023-11-21T07:36:47;4.27;;;3.97;;
1777;SDS011;71547;50.146;8.174;2023-11-21T07:39:14;4.67;;;4.27;;
1777;SDS011;71547;50.146;8.174;2023-11-21T07:41:45;5.70;;;5.20;;
1777;SDS011;71547;50.146;8.174;2023-11-21T07:44:15;7.10;;;4.33;;
1777;SDS011;71547;50.146;8.174;2023-11-21T07:46:43;4.23;;;3.90;;
1777;SDS011;71547;50.146;8.174;2023-11-21T07:49:11;4.70;;;4.30;;
1777;SDS011;71547;50.146;8.174;2023-11-21T07:51:41;5.60;;;4.20;;
1777;SDS011;71547;50.146;8.174;2023-11-21T07:54:08;6.40;;;5.07;;
1777;SDS011;71547;50.146;8.174;2023-11-21T07:56:35;6.83;;;4.17;;
1777;SDS011;71547;50.146;8.174;2023-11-21T07:59:03;4.23;;;3.80;;
1777;SDS011;71547;50.146;8.174;2023-11-21T08:01:31;4.63;;;4.23;;
1777;SDS011;71547;50.146;8.174;2023-11-21T08:03:58;6.63;;;3.93;;
1777;SDS011;71547;50.146;8.174;2023-11-21T08:06:30;4.10;;;3.57;;
1777;SDS011;71547;50.146;8.174;2023-11-21T08:08:57;3.70;;;3.40;;
1777;SDS011;71547;50.146;8.174;2023-11-21T08:11:24;5.53;;;3.57;;
1777;SDS011;71547;50.146;8.174;2023-11-21T08:13:55;4.17;;;2.87;;
1777;SDS011;71547;50.146;8.174;2023-11-21T08:16:24;7.10;;;3.87;;
1777;SDS011;71547;50.146;8.174;2023-11-21T08:18:51;3.20;;;3.00;;
1777;SDS011;71547;50.146;8.174;2023-11-21T08:21:19;3.53;;;2.80;;
1777;SDS011;71547;50.146;8.174;2023-11-21T08:23:46;3.00;;;2.80;;
1777;SDS011;71547;50.146;8.174;2023-11-21T08:26:18;3.90;;;3.33;;
1777;SDS011;71547;50.146;8.174;2023-11-21T08:28:45;3.97;;;3.57;;
1777;SDS011;71547;50.146;8.174;2023-11-21T08:31:13;3.47;;;3.17;;
1777;SDS011;71547;50.146;8.174;2023-11-21T08:33:43;5.67;;;3.53;;
1777;SDS011;71547;50.146;8.174;2023-11-21T08:36:10;4.37;;;3.73;;
1777;SDS011;71547;50.146;8.174;2023-11-21T08:38:38;3.43;;;3.13;;
1777;SDS011;71547;50.146;8.174;2023-11-21T08:41:05;3.20;;;3.00;;
1777;SDS011;71547;50.146;8.174;2023-11-21T08:43:37;3.93;;;3.33;;
1777;SDS011;71547;50.146;8.174;2023-11-21T08:46:07;4.93;;;3.40;;
1777;SDS011;71547;50.146;8.174;2023-11-21T08:48:37;3.83;;;3.20;;
1777;SDS011;71547;50.146;8.174;2023-11-21T08:51:06;4.03;;;3.63;;
1777;SDS011;71547;50.146;8.174;2023-11-21T08:53:36;4.27;;;3.93;;
1777;SDS011;71547;50.146;8.174;2023-11-21T08:56:04;4.00;;;3.70;;
1777;SDS011;71547;50.146;8.174;2023-11-21T08:58:32;5.57;;;3.50;;
1777;SDS011;71547;50.146;8.174;2023-11-21T09:00:59;3.57;;;3.37;;
1777;SDS011;71547;50.146;8.174;2023-11-21T09:03:27;4.07;;;3.77;;
1777;SDS011;71547;50.146;8.174;2023-11-21T09:05:55;5.80;;;5.33;;
1777;SDS011;71547;50.146;8.174;2023-11-21T09:08:23;4.53;;;3.37;;
1777;SDS011;71547;50.146;8.174;2023-11-21T09:10:50;3.80;;;3.40;;
1777;SDS011;71547;50.146;8.174;2023-11-21T09:13:17;4.53;;;3.50;;
1777;SDS011;71547;50.146;8.174;2023-11-21T09:15:44;4.37;;;3.40;;
1777;SDS011;71547;50.146;8.174;2023-11-21T09:18:13;4.33;;;3.93;;
1777;SDS011;71547;50.146;8.174;2023-11-21T09:20:40;4.33;;;3.57;;
1777;SDS011;71547;50.146;8.174;2023-11-21T09:23:09;4.10;;;3.33;;
1777;SDS011;71547;50.146;8.174;2023-11-21T09:25:38;4.00;;;3.70;;
1777;SDS011;71547;50.146;8.174;2023-11-21T09:28:05;3.70;;;3.10;;
1777;SDS011;71547;50.146;8.174;2023-11-21T09:30:34;3.87;;;3.47;;
1777;SDS011;71547;50.146;8.174;2023-11-21T09:33:02;5.93;;;3.73;;
1777;SDS011;71547;50.146;8.174;2023-11-21T09:35:34;4.47;;;3.10;;
1777;SDS011;71547;50.146;8.174;2023-11-21T09:38:01;4.40;;;3.50;;
1777;SDS011;71547;50.146;8.174;2023-11-21T09:40:32;10.50;;;3.20;;
1777;SDS011;71547;50.146;8.174;2023-11-21T09:43:00;5.33;;;2.77;;
1777;SDS011;71547;50.146;8.174;2023-11-21T09:45:34;4.13;;;2.90;;
1777;SDS011;71547;50.146;8.174;2023-11-21T09:48:02;5.10;;;3.33;;
1777;SDS011;71547;50.146;8.174;2023-11-21T09:50:30;5.33;;;3.17;;
1777;SDS011;71547;50.146;8.174;2023-11-21T09:53:03;3.87;;;3.53;;
1777;SDS011;71547;50.146;8.174;2023-11-21T09:55:42;4.90;;;3.23;;
1777;SDS011;71547;50.146;8.174;2023-11-21T09:58:13;3.83;;;3.30;;
1777;SDS011;71547;50.146;8.174;2023-11-21T10:00:41;5.10;;;3.40;;
1777;SDS011;71547;50.146;8.174;2023-11-21T10:03:09;4.93;;;3.43;;
1777;SDS011;71547;50.146;8.174;2023-11-21T10:05:38;3.17;;;2.87;;
1777;SDS011;71547;50.146;8.174;2023-11-21T10:08:07;3.40;;;3.07;;
1777;SDS011;71547;50.146;8.174;2023-11-21T10:10:36;4.53;;;3.57;;
1777;SDS011;71547;50.146;8.174;2023-11-21T10:13:08;4.07;;;3.20;;
1777;SDS011;71547;50.146;8.174;2023-11-21T10:15:42;6.80;;;3.50;;
1777;SDS011;71547;50.146;8.174;2023-11-21T10:18:15;3.67;;;3.23;;
1777;SDS011;71547;50.146;8.174;2023-11-21T10:20:44;8.00;;;4.03;;
1777;SDS011;71547;50.146;8.174;2023-11-21T10:23:19;10.77;;;4.70;;
1777;SDS011;71547;50.146;8.174;2023-11-21T10:25:48;5.70;;;4.13;;
1777;SDS011;71547;50.146;8.174;2023-11-21T10:28:19;5.87;;;4.50;;
1777;SDS011;71547;50.146;8.174;2023-11-21T10:30:47;6.60;;;4.00;;
1777;SDS011;71547;50.146;8.174;2023-11-21T10:33:15;6.53;;;3.30;;
1777;SDS011;71547;50.146;8.174;2023-11-21T10:35:43;8.27;;;3.20;;
1777;SDS011;71547;50.146;8.174;2023-11-21T10:38:17;4.67;;;3.03;;
1777;SDS011;71547;50.146;8.174;2023-11-21T10:40:47;4.33;;;3.17;;
1777;SDS011;71547;50.146;8.174;2023-11-21T10:43:15;3.97;;;3.07;;
1777;SDS011;71547;50.146;8.174;2023-11-21T10:45:45;3.30;;;2.97;;
1777;SDS011;71547;50.146;8.174;2023-11-21T10:48:14;4.13;;;2.57;;
1777;SDS011;71547;50.146;8.174;2023-11-21T10:50:43;6.10;;;3.30;;
1777;SDS011;71547;50.146;8.174;2023-11-21T10:53:11;6.87;;;4.10;;
1777;SDS011;71547;50.146;8.174;2023-11-21T10:55:39;5.70;;;2.83;;
1777;SDS011;71547;50.146;8.174;2023-11-21T10:58:07;6.33;;;3.50;;
1777;SDS011;71547;50.146;8.174;2023-11-21T11:00:37;3.93;;;2.93;;
1777;SDS011;71547;50.146;8.174;2023-11-21T11:03:08;5.20;;;3.63;;
1777;SDS011;71547;50.146;8.174;2023-11-21T11:05:43;6.53;;;3.10;;
1777;SDS011;71547;50.146;8.174;2023-11-21T11:08:19;5.27;;;3.50;;
1777;SDS011;71547;50.146;8.174;2023-11-21T11:10:54;3.20;;;2.90;;
1777;SDS011;71547;50.146;8.174;2023-11-21T11:13:22;5.10;;;3.20;;
1777;SDS011;71547;50.146;8.174;2023-11-21T11:15:50;4.50;;;3.27;;
1777;SDS011;71547;50.146;8.174;2023-11-21T11:18:27;3.30;;;2.93;;
1777;SDS011;71547;50.146;8.174;2023-11-21T11:20:56;3.70;;;3.43;;
1777;SDS011;71547;50.146;8.174;2023-11-21T11:23:37;3.80;;;3.07;;
1777;SDS011;71547;50.146;8.174;2023-11-21T11:26:24;6.20;;;4.00;;
1777;SDS011;71547;50.146;8.174;2023-11-21T11:29:01;3.60;;;3.30;;
1777;SDS011;71547;50.146;8.174;2023-11-21T11:31:51;8.20;;;3.90;;
1777;SDS011;71547;50.146;8.174;2023-11-21T11:34:34;6.37;;;3.53;;
1777;SDS011;71547;50.146;8.174;2023-11-21T11:37:08;2.93;;;2.73;;
1777;SDS011;71547;50.146;8.174;2023-11-21T11:39:36;8.10;;;3.60;;
1777;SDS011;71547;50.146;8.174;2023-11-21T11:42:06;4.03;;;3.60;;
1777;SDS011;71547;50.146;8.174;2023-11-21T11:44:51;5.50;;;3.30;;
1777;SDS011;71547;50.146;8.174;2023-11-21T11:47:24;3.23;;;3.00;;
1777;SDS011;71547;50.146;8.174;2023-11-21T11:50:06;5.03;;;3.00;;
1777;SDS011;71547;50.146;8.174;2023-11-21T11:52:40;3.57;;;2.77;;
1777;SDS011;71547;50.146;8.174;2023-11-21T11:55:10;6.40;;;3.50;;
1777;SDS011;71547;50.146;8.174;2023-11-21T11:57:40;3.60;;;3.30;;
1777;SDS011;71547;50.146;8.174;2023-11-21T12:00:10;3.73;;;3.43;;
1777;SDS011;71547;50.146;8.174;2023-11-21T12:02:45;5.53;;;3.83;;
1777;SDS011;71547;50.146;8.174;2023-11-21T12:05:15;3.83;;;3.13;;
1777;SDS011;71547;50.146;8.174;2023-11-21T12:07:45;5.60;;;3.40;;
1777;SDS011;71547;50.146;8.174;2023-11-21T12:10:16;6.23;;;4.03;;
1777;SDS011;71547;50.146;8.174;2023-11-21T12:12:45;4.20;;;3.80;;
1777;SDS011;71547;50.146;8.174;2023-11-21T12:15:14;4.77;;;3.70;;
1777;SDS011;71547;50.146;8.174;2023-11-21T12:17:42;3.73;;;3.43;;
1777;SDS011;71547;50.146;8.174;2023-11-21T12:20:10;4.43;;;4.00;;
1777;SDS011;71547;50.146;8.174;2023-11-21T12:22:48;4.87;;;4.20;;
1777;SDS011;71547;50.146;8.174;2023-11-21T12:25:17;5.37;;;4.17;;
1777;SDS011;71547;50.146;8.174;2023-11-21T12:27:47;5.83;;;4.60;;
1777;SDS011;71547;50.146;8.174;2023-11-21T12:30:17;5.30;;;4.30;;
1777;SDS011;71547;50.146;8.174;2023-11-21T12:32:47;4.90;;;4.47;;
1777;SDS011;71547;50.146;8.174;2023-11-21T12:35:17;5.30;;;3.93;;
1777;SDS011;71547;50.146;8.174;2023-11-21T12:37:49;6.73;;;4.80;;
1777;SDS011;71547;50.146;8.174;2023-11-21T12:40:19;6.93;;;4.50;;
1777;SDS011;71547;50.146;8.174;2023-11-21T12:42:50;4.60;;;4.20;;
1777;SDS011;71547;50.146;8.174;2023-11-21T12:45:20;4.80;;;4.30;;
1777;SDS011;71547;50.146;8.174;2023-11-21T12:47:49;7.83;;;4.97;;
1777;SDS011;71547;50.146;8.174;2023-11-21T12:50:20;5.97;;;5.37;;
1777;SDS011;71547;50.146;8.174;2023-11-21T12:52:59;5.50;;;5.00;;
1777;SDS011;71547;50.146;8.174;2023-11-21T12:55:30;6.63;;;5.17;;
1777;SDS011;71547;50.146;8.174;2023-11-21T12:58:00;8.00;;;5.90;;
1777;SDS011;71547;50.146;8.174;2023-11-21T13:00:37;7.90;;;6.53;;
1777;SDS011;71547;50.146;8.174;2023-11-21T13:03:10;7.10;;;6.20;;
1777;SDS011;71547;50.146;8.174;2023-11-21T13:05:42;9.17;;;6.37;;
1777;SDS011;71547;50.146;8.174;2023-11-21T13:08:15;8.20;;;6.13;;
1777;SDS011;71547;50.146;8.174;2023-11-21T13:10:46;10.00;;;7.23;;
1777;SDS011;71547;50.146;8.174;2023-11-21T13:13:18;9.03;;;5.47;;
1777;SDS011;71547;50.146;8.174;2023-11-21T13:15:50;8.27;;;6.10;;
1777;SDS011;71547;50.146;8.174;2023-11-21T13:18:19;13.27;;;6.50;;
1777;SDS011;71547;50.146;8.174;2023-11-21T13:20:48;8.07;;;6.23;;
1777;SDS011;71547;50.146;8.174;2023-11-21T13:23:17;6.50;;;5.83;;
1777;SDS011;71547;50.146;8.174;2023-11-21T13:25:44;9.00;;;6.27;;
1777;SDS011;71547;50.146;8.174;2023-11-21T13:28:23;9.13;;;5.80;;
1777;SDS011;71547;50.146;8.174;2023-11-21T13:30:53;6.43;;;5.60;;
1777;SDS011;71547;50.146;8.174;2023-11-21T13:33:20;5.47;;;4.77;;
1777;SDS011;71547;50.146;8.174;2023-11-21T13:35:53;12.27;;;6.00;;
1777;SDS011;71547;50.146;8.174;2023-11-21T13:38:24;5.97;;;5.37;;
1777;SDS011;71547;50.146;8.174;2023-11-21T13:40:52;10.30;;;5.30;;
1777;SDS011;71547;50.146;8.174;2023-11-21T13:43:20;5.40;;;4.50;;
1777;SDS011;71547;50.146;8.174;2023-11-21T13:45:52;9.40;;;4.97;;
1777;SDS011;71547;50.146;8.174;2023-11-21T13:48:41;6.90;;;4.77;;
1777;SDS011;71547;50.146;8.174;2023-11-21T13:51:09;6.70;;;5.70;;
1777;SDS011;71547;50.146;8.174;2023-11-21T13:53:45;4.67;;;4.33;;
1777;SDS011;71547;50.146;8.174;2023-11-21T13:56:18;10.23;;;5.17;;
1777;SDS011;71547;50.146;8.174;2023-11-21T13:58:51;7.60;;;5.00;;
1777;SDS011;71547;50.146;8.174;2023-11-21T14:01:20;5.63;;;4.63;;
1777;SDS011;71547;50.146;8.174;2023-11-21T14:03:58;6.10;;;4.67;;
1777;SDS011;71547;50.146;8.174;2023-11-21T14:06:42;6.53;;;5.07;;
1777;SDS011;71547;50.146;8.174;2023-11-21T14:09:19;7.63;;;4.77;;
1777;SDS011;71547;50.146;8.174;2023-11-21T14:11:52;9.40;;;4.87;;
1777;SDS011;71547;50.146;8.174;2023-11-21T14:14:23;7.13;;;5.20;;
1777;SDS011;71547;50.146;8.174;2023-11-21T14:16:52;7.50;;;4.90;;
1777;SDS011;71547;50.146;8.174;2023-11-21T14:19:20;7.87;;;5.37;;
1777;SDS011;71547;50.146;8.174;2023-11-21T14:21:47;6.43;;;5.00;;
1777;SDS011;71547;50.146;8.174;2023-11-21T14:24:15;6.60;;;5.13;;
1777;SDS011;71547;50.146;8.174;2023-11-21T14:26:46;6.90;;;5.43;;
1777;SDS011;71547;50.146;8.174;2023-11-21T14:29:15;5.93;;;5.33;;
1777;SDS011;71547;50.146;8.174;2023-11-21T14:31:46;8.70;;;4.67;;
1777;SDS011;71547;50.146;8.174;2023-11-21T14:34:15;6.70;;;5.50;;
1777;SDS011;71547;50.146;8.174;2023-11-21T14:36:47;7.70;;;5.50;;
1777;SDS011;71547;50.146;8.174;2023-11-21T14:39:15;8.03;;;5.40;;
1777;SDS011;71547;50.146;8.174;2023-11-21T14:42:05;8.80;;;5.67;;
1777;SDS011;71547;50.146;8.174;2023-11-21T14:44:34;9.30;;;6.13;;
1777;SDS011;71547;50.146;8.174;2023-11-21T14:47:05;7.80;;;5.73;;
1777;SDS011;71547;50.146;8.174;2023-11-21T14:49:41;13.63;;;8.37;;
1777;SDS011;71547;50.146;8.174;2023-11-21T14:52:22;9.57;;;6.03;;
1777;SDS011;71547;50.146;8.174;2023-11-21T14:54:59;8.40;;;5.83;;
1777;SDS011;71547;50.146;8.174;2023-11-21T14:57:48;9.00;;;5.13;;
1777;SDS011;71547;50.146;8.174;2023-11-21T15:00:19;8.40;;;6.20;;
1777;SDS011;71547;50.146;8.174;2023-11-21T15:03:02;12.73;;;6.80;;
1777;SDS011;71547;50.146;8.174;2023-11-21T15:05:31;8.37;;;5.63;;
1777;SDS011;71547;50.146;8.174;2023-11-21T15:08:00;12.50;;;7.03;;
1777;SDS011;71547;50.146;8.174;2023-11-21T15:10:48;9.17;;;6.37;;
1777;SDS011;71547;50.146;8.174;2023-11-21T15:13:21;10.63;;;7.10;;
1777;SDS011;71547;50.146;8.174;2023-11-21T15:15:50;9.93;;;5.70;;
1777;SDS011;71547;50.146;8.174;2023-11-21T15:18:20;10.27;;;7.20;;
1777;SDS011;71547;50.146;8.174;2023-11-21T15:20:48;9.70;;;6.67;;